DGE weather

Mudgee Airport
Mudgee, New South Wales, Australia

Public forecast

Using degrees Celsius for public forecast. Weather courtesy of forecast.io.

METAR (pilot weather report)

Retrieved 2019/03/24 04:00 UTC (41 minutes ago):

YMDG 240400Z AUTO 29005KT 270V340 9999 // OVC120 29/16 Q1012

TAF (pilot weather forecast)

Closest forecast is Dubbo City Regional Airport, 56.5 nm (104.6 km) WNW. Retrieved 2019/03/24 00:40 UTC (4 hours ago):

TAF YSDU 232259Z 2400/2418 20010KT CAVOK FM241200 12010KT 9999 SCT090